createdAt,value
2018-12-15T00:01:29.860Z,23.50
2018-12-15T00:03:58.599Z,24.30
2018-12-15T00:06:27.289Z,23.27
2018-12-15T00:08:55.280Z,20.97
2018-12-15T00:11:23.225Z,23.67
2018-12-15T00:13:51.086Z,22.57
2018-12-15T00:16:18.966Z,23.97
2018-12-15T00:18:46.817Z,23.93
2018-12-15T00:21:14.684Z,23.27
2018-12-15T00:23:42.900Z,22.30
2018-12-15T00:26:10.840Z,21.80
2018-12-15T00:28:38.830Z,21.07
2018-12-15T00:31:06.797Z,22.33
2018-12-15T00:33:34.992Z,21.00
2018-12-15T00:36:02.702Z,20.40
2018-12-15T00:38:30.567Z,21.23
2018-12-15T00:40:58.592Z,19.60
2018-12-15T00:43:26.668Z,19.33
2018-12-15T00:45:54.590Z,20.30
2018-12-15T00:48:22.657Z,21.40
2018-12-15T00:50:50.845Z,19.80
2018-12-15T00:53:19.051Z,18.53
2018-12-15T00:55:46.878Z,19.40
2018-12-15T00:58:14.744Z,18.23
2018-12-15T01:00:43.777Z,18.23
2018-12-15T01:03:11.926Z,16.70
2018-12-15T01:05:40.028Z,16.80
2018-12-15T01:08:07.931Z,17.87
2018-12-15T01:10:35.822Z,17.07
2018-12-15T01:13:04.112Z,16.40
2018-12-15T01:15:46.627Z,15.87
2018-12-15T01:18:14.795Z,16.37
2018-12-15T01:20:42.960Z,17.30
2018-12-15T01:23:11.254Z,15.77
2018-12-15T01:25:39.415Z,14.53
2018-12-15T01:28:07.406Z,14.90
2018-12-15T01:30:35.221Z,14.47
2018-12-15T01:33:03.213Z,15.97
2018-12-15T01:35:31.304Z,14.50
2018-12-15T01:37:59.243Z,14.17
2018-12-15T01:40:27.105Z,13.10
2018-12-15T01:42:55.100Z,12.77
2018-12-15T01:45:23.298Z,12.30
2018-12-15T01:47:51.366Z,12.93
2018-12-15T01:50:19.297Z,12.33
2018-12-15T01:52:47.405Z,11.87
2018-12-15T01:55:15.445Z,11.87
2018-12-15T01:57:43.645Z,11.00
2018-12-15T02:00:13.464Z,11.30
2018-12-15T02:02:41.427Z,10.57
2018-12-15T02:05:09.366Z,10.70
2018-12-15T02:07:37.332Z,10.70
2018-12-15T02:10:06.472Z,10.50
2018-12-15T02:12:35.371Z,11.40
2018-12-15T02:15:03.728Z,10.90
2018-12-15T02:17:33.781Z,11.07
2018-12-15T02:20:02.025Z,11.50
2018-12-15T02:22:30.076Z,11.63
2018-12-15T02:24:58.215Z,11.97
2018-12-15T02:27:26.081Z,11.90
2018-12-15T02:29:54.072Z,11.67
2018-12-15T02:32:22.383Z,11.83
2018-12-15T02:34:50.249Z,12.10
2018-12-15T02:37:18.319Z,14.20
2018-12-15T02:39:46.360Z,12.90
2018-12-15T02:42:14.325Z,12.47
2018-12-15T02:44:42.190Z,12.63
2018-12-15T02:47:10.056Z,13.20
2018-12-15T02:49:37.923Z,12.83
2018-12-15T02:52:05.838Z,11.97
2018-12-15T02:54:33.853Z,11.57
2018-12-15T02:57:01.744Z,12.50
2018-12-15T02:59:30.142Z,11.50
2018-12-15T03:01:58.201Z,11.07
2018-12-15T03:04:26.285Z,12.20
2018-12-15T03:06:54.131Z,11.00
2018-12-15T03:09:22.072Z,10.80
2018-12-15T03:11:50.099Z,11.10
2018-12-15T03:14:18.004Z,10.40
2018-12-15T03:17:07.121Z,10.57
2018-12-15T03:19:35.162Z,10.63
2018-12-15T03:22:03.132Z,9.90
2018-12-15T03:24:31.314Z,10.30
2018-12-15T03:26:59.405Z,11.30
2018-12-15T03:29:27.491Z,10.90
2018-12-15T03:31:55.414Z,9.67
2018-12-15T03:34:23.340Z,10.83
2018-12-15T03:36:51.472Z,10.20
2018-12-15T03:39:19.410Z,9.87
2018-12-15T03:41:47.553Z,10.97
2018-12-15T03:44:15.701Z,10.87
2018-12-15T03:46:43.756Z,8.60
2018-12-15T03:49:11.843Z,8.07
2018-12-15T03:51:39.913Z,8.80
2018-12-15T03:54:07.828Z,8.17
2018-12-15T03:56:35.827Z,8.47
2018-12-15T03:59:04.110Z,8.60
2018-12-15T04:01:32.272Z,7.90
2018-12-15T04:04:00.090Z,7.80
2018-12-15T04:06:28.007Z,8.40
2018-12-15T04:08:55.971Z,8.10
2018-12-15T04:11:24.078Z,7.47
2018-12-15T04:13:52.079Z,7.73
2018-12-15T04:16:20.004Z,7.37
2018-12-15T04:18:47.935Z,7.27
2018-12-15T04:21:15.926Z,8.47
2018-12-15T04:23:44.691Z,6.40
2018-12-15T04:26:12.707Z,8.40
2018-12-15T04:28:40.778Z,8.40
2018-12-15T04:31:08.814Z,8.13
2018-12-15T04:33:37.705Z,7.87
2018-12-15T04:36:11.544Z,8.60
2018-12-15T04:38:39.584Z,8.60
2018-12-15T04:41:07.525Z,9.00
2018-12-15T04:43:35.415Z,9.07
2018-12-15T04:46:03.256Z,8.90
2018-12-15T04:48:31.291Z,8.70
2018-12-15T04:50:59.816Z,9.07
2018-12-15T04:53:27.804Z,8.80
2018-12-15T04:55:56.536Z,8.70
2018-12-15T04:58:24.459Z,9.30
2018-12-15T05:00:52.463Z,8.73
2018-12-15T05:03:20.459Z,10.30
2018-12-15T05:05:48.381Z,9.90
2018-12-15T05:08:16.477Z,10.40
2018-12-15T05:10:44.317Z,10.70
2018-12-15T05:13:12.208Z,10.17
2018-12-15T05:15:40.245Z,9.97
2018-12-15T05:18:08.347Z,10.53
2018-12-15T05:20:36.278Z,11.50
2018-12-15T05:23:04.267Z,9.70
2018-12-15T05:25:32.356Z,11.00
2018-12-15T05:28:00.097Z,10.50
2018-12-15T05:30:28.089Z,10.53
2018-12-15T05:32:56.161Z,11.00
2018-12-15T05:35:24.195Z,10.27
2018-12-15T05:37:52.160Z,9.90
2018-12-15T05:40:20.026Z,9.37
2018-12-15T05:42:48.036Z,10.77
2018-12-15T05:45:16.082Z,10.40
2018-12-15T05:47:44.825Z,10.13
2018-12-15T05:50:13.070Z,9.77
2018-12-15T05:52:41.055Z,10.20
2018-12-15T05:55:08.924Z,10.80
2018-12-15T05:57:36.873Z,10.67
2018-12-15T06:00:08.017Z,10.53
2018-12-15T06:02:36.292Z,11.40
2018-12-15T06:05:05.159Z,10.60
2018-12-15T06:07:33.099Z,10.20
2018-12-15T06:10:01.314Z,10.53
2018-12-15T06:12:29.254Z,9.67
2018-12-15T06:14:57.121Z,9.90
2018-12-15T06:17:25.111Z,10.13
2018-12-15T06:19:53.202Z,10.40
2018-12-15T06:22:21.244Z,10.30
2018-12-15T06:24:49.310Z,10.50
2018-12-15T06:27:17.274Z,9.63
2018-12-15T06:29:45.265Z,9.60
2018-12-15T06:32:14.386Z,11.83
2018-12-15T06:34:42.431Z,9.70
2018-12-15T06:37:10.912Z,10.00
2018-12-15T06:39:38.852Z,10.87
2018-12-15T06:42:06.970Z,10.60
2018-12-15T06:44:35.033Z,11.30
2018-12-15T06:47:02.974Z,10.80
2018-12-15T06:49:31.187Z,11.20
2018-12-15T06:51:58.930Z,10.37
2018-12-15T06:54:26.896Z,11.03
2018-12-15T06:56:54.966Z,11.40
2018-12-15T06:59:23.058Z,12.30
2018-12-15T07:01:50.768Z,11.53
2018-12-15T07:04:18.791Z,12.17
2018-12-15T07:06:46.724Z,11.17
2018-12-15T07:09:14.640Z,11.13
2018-12-15T07:11:42.492Z,12.00
2018-12-15T07:14:10.671Z,12.30
2018-12-15T07:16:38.712Z,13.07
2018-12-15T07:19:06.653Z,12.27
2018-12-15T07:21:34.519Z,12.50
2018-12-15T07:24:02.508Z,12.00
2018-12-15T07:26:30.613Z,11.87
2018-12-15T07:28:58.889Z,12.67
2018-12-15T07:31:26.930Z,13.17
2018-12-15T07:33:55.021Z,12.70
2018-12-15T07:36:22.962Z,13.30
2018-12-15T07:38:50.827Z,12.40
2018-12-15T07:41:19.044Z,12.13
2018-12-15T07:43:47.083Z,13.00
2018-12-15T07:46:15.250Z,12.87
2018-12-15T07:48:43.219Z,12.73
2018-12-15T07:51:11.121Z,13.00
2018-12-15T07:53:39.089Z,13.30
2018-12-15T07:56:07.058Z,13.87
2018-12-15T07:58:35.027Z,13.37
2018-12-15T08:01:02.744Z,13.33
2018-12-15T08:03:30.760Z,13.80
2018-12-15T08:05:58.627Z,13.00
2018-12-15T08:08:26.570Z,14.97
2018-12-15T08:11:00.299Z,13.87
2018-12-15T08:13:29.299Z,16.47
2018-12-15T08:15:57.600Z,14.47
2018-12-15T08:18:25.380Z,14.60
2018-12-15T08:20:53.368Z,14.23
2018-12-15T08:23:21.464Z,14.80
2018-12-15T08:25:49.624Z,15.00
2018-12-15T08:28:17.566Z,14.33
2018-12-15T08:30:46.188Z,16.00
2018-12-15T08:33:14.123Z,14.30
2018-12-15T08:35:42.063Z,15.20
2018-12-15T08:38:10.209Z,14.07
2018-12-15T08:40:38.243Z,14.47
2018-12-15T08:43:06.357Z,15.60
2018-12-15T08:45:34.400Z,14.13
2018-12-15T08:48:02.345Z,14.90
2018-12-15T08:50:30.331Z,14.33
2018-12-15T08:52:58.622Z,14.60
2018-12-15T08:55:26.562Z,12.83
2018-12-15T08:57:54.778Z,13.37
2018-12-15T09:00:22.697Z,13.87
2018-12-15T09:02:50.793Z,14.10
2018-12-15T09:05:18.791Z,12.00
2018-12-15T09:07:46.716Z,12.17
2018-12-15T09:10:14.586Z,11.70
2018-12-15T09:12:42.571Z,12.03
2018-12-15T09:15:11.483Z,12.47
2018-12-15T09:17:40.079Z,12.83
2018-12-15T09:20:08.239Z,12.07
2018-12-15T09:22:36.235Z,12.80
2018-12-15T09:25:04.453Z,12.50
2018-12-15T09:27:32.365Z,11.67
2018-12-15T09:30:00.309Z,11.93
2018-12-15T09:32:28.248Z,10.80
2018-12-15T09:34:56.112Z,11.90
2018-12-15T09:37:23.981Z,12.77
2018-12-15T09:39:51.843Z,13.90
2018-12-15T09:42:20.063Z,13.97
2018-12-15T09:44:48.000Z,13.30
2018-12-15T09:47:16.014Z,12.60
2018-12-15T09:49:43.931Z,12.70
2018-12-15T09:52:12.122Z,12.50
2018-12-15T09:54:40.066Z,12.43
2018-12-15T09:57:08.153Z,14.50
2018-12-15T09:59:36.094Z,13.10
2018-12-15T10:02:04.324Z,12.70
2018-12-15T10:04:32.328Z,12.67
2018-12-15T10:07:00.468Z,13.17
2018-12-15T10:09:31.584Z,13.53
2018-12-15T10:15:07.860Z,13.87
2018-12-15T10:17:35.825Z,14.20
2018-12-15T10:20:05.203Z,14.57
2018-12-15T10:22:33.337Z,15.30
2018-12-15T10:25:01.400Z,13.93
2018-12-15T10:27:29.539Z,14.10
2018-12-15T10:33:01.507Z,14.07
2018-12-15T10:35:29.650Z,14.90
2018-12-15T10:37:57.513Z,14.47
2018-12-15T10:40:25.675Z,14.90
2018-12-15T10:42:53.746Z,14.97
2018-12-15T10:45:21.662Z,15.10
2018-12-15T10:47:49.889Z,14.10
2018-12-15T10:50:17.942Z,15.50
2018-12-15T10:52:46.032Z,15.63
2018-12-15T10:55:13.903Z,15.10
2018-12-15T10:57:41.965Z,14.70
2018-12-15T11:00:12.155Z,16.03
2018-12-15T11:02:40.284Z,14.60
2018-12-15T11:05:08.662Z,14.67
2018-12-15T11:07:36.716Z,15.37
2018-12-15T11:10:04.988Z,15.83
2018-12-15T11:12:32.708Z,15.67
2018-12-15T11:15:00.826Z,16.10
2018-12-15T11:17:28.689Z,14.83
2018-12-15T11:19:56.630Z,14.80
2018-12-15T11:22:24.730Z,14.60
2018-12-15T11:24:52.787Z,14.47
2018-12-15T11:27:24.368Z,15.70
2018-12-15T11:29:52.426Z,15.00
2018-12-15T11:32:20.484Z,14.87
2018-12-15T11:34:48.426Z,15.30
2018-12-15T11:37:16.230Z,15.83
2018-12-15T11:39:44.256Z,15.47
2018-12-15T11:42:12.293Z,15.50
2018-12-15T11:44:40.187Z,16.90
2018-12-15T11:47:08.003Z,15.13
2018-12-15T11:49:35.919Z,15.00
2018-12-15T11:52:03.786Z,15.87
2018-12-15T11:54:31.901Z,15.83
2018-12-15T11:56:59.942Z,15.53
2018-12-15T11:59:27.857Z,15.47
2018-12-15T12:01:55.797Z,15.20
2018-12-15T12:04:23.749Z,15.80
2018-12-15T12:06:51.606Z,14.90
2018-12-15T12:09:19.622Z,14.43
2018-12-15T12:11:47.663Z,16.00
2018-12-15T12:14:15.952Z,14.27
2018-12-15T12:16:45.471Z,15.13
2018-12-15T12:19:13.407Z,13.50
2018-12-15T12:21:41.273Z,14.73
2018-12-15T12:24:09.140Z,15.10
2018-12-15T12:26:37.012Z,13.77
2018-12-15T12:29:05.216Z,12.37
2018-12-15T12:31:33.236Z,12.60
2018-12-15T12:34:01.327Z,13.70
2018-12-15T12:36:29.267Z,13.90
2018-12-15T12:38:58.368Z,11.70
2018-12-15T12:41:26.652Z,13.87
2018-12-15T12:43:54.667Z,13.60
2018-12-15T12:46:22.840Z,13.33
2018-12-15T12:48:50.995Z,14.33
2018-12-15T12:51:19.291Z,14.27
2018-12-15T12:53:47.328Z,14.03
2018-12-15T12:56:15.292Z,15.77
2018-12-15T12:58:43.408Z,14.50
2018-12-15T13:01:11.348Z,14.30
2018-12-15T13:03:39.293Z,15.13
2018-12-15T13:06:07.310Z,15.50
2018-12-15T13:08:35.382Z,15.10
2018-12-15T13:11:03.246Z,15.00
2018-12-15T13:13:31.202Z,15.43
2018-12-15T13:15:59.391Z,14.80
2018-12-15T13:18:27.435Z,14.50
2018-12-15T13:20:55.376Z,14.20
2018-12-15T13:23:23.241Z,15.70
2018-12-15T13:25:51.259Z,14.30
2018-12-15T13:28:19.197Z,15.00
2018-12-15T13:30:47.306Z,15.10
2018-12-15T13:33:27.101Z,14.53
2018-12-15T13:35:55.218Z,15.60
2018-12-15T13:38:23.159Z,15.33
2018-12-15T13:40:51.779Z,14.80
2018-12-15T13:43:19.848Z,14.73
2018-12-15T13:45:47.832Z,15.47
2018-12-15T13:48:15.696Z,16.90
2018-12-15T13:50:43.866Z,16.67
2018-12-15T13:53:11.829Z,16.13
2018-12-15T13:55:39.780Z,15.43
2018-12-15T13:58:07.808Z,14.57
2018-12-15T14:00:35.941Z,14.57
2018-12-15T14:03:03.965Z,16.70
2018-12-15T14:05:32.079Z,16.47
2018-12-15T14:08:00.821Z,14.60
2018-12-15T14:10:28.810Z,15.20
2018-12-15T14:12:56.907Z,15.80
2018-12-15T14:15:24.649Z,16.43
2018-12-15T14:17:52.833Z,13.70
2018-12-15T14:20:20.774Z,15.57
2018-12-15T14:22:48.640Z,15.13
2018-12-15T14:25:16.649Z,14.37
2018-12-15T14:27:44.621Z,14.87
2018-12-15T14:30:12.563Z,15.70
2018-12-15T14:32:40.658Z,16.40
2018-12-15T14:35:08.935Z,15.57
2018-12-15T14:37:36.909Z,15.57
2018-12-15T14:40:05.251Z,15.73
2018-12-15T14:42:33.340Z,15.73
2018-12-15T14:45:01.283Z,16.33
2018-12-15T14:47:29.346Z,16.40
2018-12-15T14:49:57.212Z,15.57
2018-12-15T14:52:25.429Z,17.00
2018-12-15T14:54:53.506Z,16.90
2018-12-15T14:57:25.815Z,17.13
2018-12-15T14:59:53.925Z,16.63
2018-12-15T15:02:22.019Z,17.57
2018-12-15T15:04:50.006Z,17.40
2018-12-15T15:07:17.872Z,16.83
2018-12-15T15:09:46.028Z,17.60
2018-12-15T15:12:14.028Z,17.63
2018-12-15T15:14:42.469Z,17.70
2018-12-15T15:17:10.856Z,19.13
2018-12-15T15:19:38.900Z,20.20
2018-12-15T15:22:06.999Z,19.33
2018-12-15T15:24:44.899Z,18.13
2018-12-15T15:33:43.386Z,18.93
2018-12-15T15:36:11.376Z,19.30
2018-12-15T15:38:39.465Z,19.70
2018-12-15T15:41:07.508Z,20.20
2018-12-15T15:43:35.609Z,20.17
2018-12-15T15:46:03.663Z,20.30
2018-12-15T15:48:31.750Z,21.50
2018-12-15T15:50:59.770Z,22.60
2018-12-15T15:53:27.736Z,21.30
2018-12-15T15:55:55.676Z,19.77
2018-12-15T15:58:24.142Z,21.40
2018-12-15T16:00:52.210Z,20.53
2018-12-15T16:03:20.283Z,19.03
2018-12-15T16:05:48.293Z,18.70
2018-12-15T16:08:16.279Z,19.23
2018-12-15T16:10:44.144Z,20.17
2018-12-15T16:13:12.012Z,20.07
2018-12-15T16:15:40.023Z,20.90
2018-12-15T16:18:07.744Z,21.90
2018-12-15T16:20:35.755Z,21.33
2018-12-15T16:23:03.798Z,22.07
2018-12-15T16:25:31.739Z,22.03
2018-12-15T16:27:59.680Z,21.07
2018-12-15T16:30:27.595Z,23.03
2018-12-15T16:32:55.561Z,21.43
2018-12-15T16:35:23.703Z,22.73
2018-12-15T16:37:51.694Z,21.03
2018-12-15T16:40:19.712Z,23.87
2018-12-15T16:42:47.749Z,22.43
2018-12-15T16:45:15.863Z,21.80
2018-12-15T16:47:43.824Z,22.50
2018-12-15T16:50:11.771Z,21.67
2018-12-15T16:52:40.478Z,22.20
2018-12-15T16:55:08.727Z,23.50
2018-12-15T16:57:36.685Z,24.80
2018-12-15T17:00:07.562Z,24.73
2018-12-15T17:02:35.474Z,24.30
2018-12-15T17:05:03.890Z,23.27
2018-12-15T17:07:31.831Z,23.80
2018-12-15T17:10:00.022Z,25.23
2018-12-15T17:12:27.963Z,22.93
2018-12-15T17:14:55.836Z,24.87
2018-12-15T17:17:23.693Z,24.80
2018-12-15T17:19:51.587Z,24.87
2018-12-15T17:22:19.425Z,27.40
2018-12-15T17:24:47.318Z,29.30
2018-12-15T17:27:24.808Z,29.13
2018-12-15T17:29:52.996Z,28.57
2018-12-15T17:32:20.941Z,24.83
2018-12-15T17:34:48.955Z,25.17
2018-12-15T17:37:16.868Z,25.30
2018-12-15T17:39:44.734Z,25.23
2018-12-15T17:42:12.949Z,26.40
2018-12-15T17:44:41.035Z,25.70
2018-12-15T17:47:08.956Z,25.60
2018-12-15T17:49:36.956Z,24.97
2018-12-15T17:52:05.043Z,27.67
2018-12-15T17:54:33.028Z,25.27
2018-12-15T17:57:00.944Z,25.20
2018-12-15T17:59:28.909Z,26.37
2018-12-15T18:01:56.775Z,24.70
2018-12-15T18:04:24.766Z,25.00
2018-12-15T18:06:52.706Z,24.97
2018-12-15T18:09:20.720Z,26.87
2018-12-15T18:11:48.462Z,24.10
2018-12-15T18:14:16.642Z,25.50
2018-12-15T18:16:44.920Z,25.47
2018-12-15T18:19:13.215Z,25.70
2018-12-15T18:21:41.051Z,24.30
2018-12-15T18:24:08.991Z,25.63
2018-12-15T18:26:36.982Z,26.00
2018-12-15T18:29:04.946Z,29.90
2018-12-15T18:31:32.938Z,27.77
2018-12-15T18:34:01.028Z,28.23
2018-12-15T18:36:29.070Z,27.17
2018-12-15T18:38:57.010Z,26.80
2018-12-15T18:41:24.901Z,26.00
2018-12-15T18:43:52.866Z,27.27
2018-12-15T18:46:20.832Z,24.73
2018-12-15T18:48:48.697Z,25.17
2018-12-15T18:51:16.710Z,27.00
2018-12-15T18:53:44.629Z,26.60
2018-12-15T18:56:12.620Z,26.33
2018-12-15T18:58:40.685Z,25.50
2018-12-15T19:01:08.787Z,26.40
2018-12-15T19:03:36.719Z,26.10
2018-12-15T19:06:04.770Z,26.53
2018-12-15T19:08:33.476Z,25.10
2018-12-15T19:11:01.464Z,26.53
2018-12-15T19:13:29.531Z,25.67
2018-12-15T19:15:57.627Z,27.17
2018-12-15T19:18:25.611Z,27.00
2018-12-15T19:20:53.477Z,26.27
2018-12-15T19:23:21.621Z,27.20
2018-12-15T19:25:49.909Z,26.93
2018-12-15T19:28:17.830Z,27.13
2018-12-15T19:30:45.718Z,25.70
2018-12-15T19:33:13.904Z,27.20
2018-12-15T19:35:41.850Z,28.00
2018-12-15T19:38:09.716Z,28.30
2018-12-15T19:40:37.577Z,27.77
2018-12-15T19:43:05.693Z,27.40
2018-12-15T19:45:33.660Z,28.33
2018-12-15T19:48:01.938Z,27.73
2018-12-15T19:50:29.864Z,29.67
2018-12-15T19:52:57.858Z,27.27
2018-12-15T19:55:25.796Z,29.10
2018-12-15T19:57:53.661Z,27.07
2018-12-15T20:00:21.651Z,28.07
2018-12-15T20:02:49.718Z,27.40
2018-12-15T20:05:17.821Z,28.60
2018-12-15T20:07:45.750Z,28.37
2018-12-15T20:10:13.656Z,28.00
2018-12-15T20:12:41.481Z,28.17
2018-12-15T20:15:09.647Z,29.83
2018-12-15T20:17:37.769Z,31.90
2018-12-15T20:20:06.658Z,29.83
2018-12-15T20:22:34.680Z,29.17
2018-12-15T20:25:02.784Z,29.10
2018-12-15T20:27:30.873Z,30.87
2018-12-15T20:29:58.918Z,27.90
2018-12-15T20:32:27.132Z,29.03
2018-12-15T20:34:54.831Z,27.73
2018-12-15T20:37:22.953Z,29.40
2018-12-15T20:39:50.716Z,30.70
2018-12-15T20:42:18.616Z,31.37
2018-12-15T20:44:46.735Z,32.30
2018-12-15T20:47:15.002Z,31.47
2018-12-15T20:49:42.968Z,31.97
2018-12-15T20:52:10.831Z,30.90
2018-12-15T20:54:38.747Z,30.83
2018-12-15T20:57:08.042Z,31.47
2018-12-15T20:59:36.281Z,30.30
2018-12-15T21:02:04.151Z,30.50
2018-12-15T21:04:32.059Z,33.37
2018-12-15T21:07:00.175Z,34.03
2018-12-15T21:09:28.141Z,31.20
2018-12-15T21:11:56.156Z,31.87
2018-12-15T21:14:24.124Z,31.13
2018-12-15T21:16:52.094Z,30.93
2018-12-15T21:19:20.130Z,32.90
2018-12-15T21:21:49.584Z,30.90
2018-12-15T21:24:18.134Z,29.70
2018-12-15T21:26:47.042Z,29.97
2018-12-15T21:29:15.041Z,30.50
2018-12-15T21:31:42.957Z,32.40
2018-12-15T21:34:12.077Z,31.07
2018-12-15T21:36:40.044Z,30.87
2018-12-15T21:39:08.129Z,31.30
2018-12-15T21:41:36.194Z,30.70
2018-12-15T21:44:04.164Z,31.07
2018-12-15T21:46:32.100Z,30.67
2018-12-15T21:48:59.968Z,32.23
2018-12-15T21:51:28.164Z,30.57
2018-12-15T21:53:56.172Z,30.50
2018-12-15T21:56:24.091Z,33.57
2018-12-15T21:58:52.029Z,33.17
2018-12-15T22:01:19.896Z,31.80
2018-12-15T22:03:47.761Z,29.77
2018-12-15T22:06:15.756Z,30.77
2018-12-15T22:08:43.716Z,31.67
2018-12-15T22:11:11.760Z,32.87
2018-12-15T22:13:39.763Z,31.40
2018-12-15T22:16:07.838Z,33.63
2018-12-15T22:18:36.133Z,33.90
2018-12-15T22:21:04.200Z,33.57
2018-12-15T22:23:32.210Z,33.83
2018-12-15T22:26:00.103Z,34.87
2018-12-15T22:28:28.066Z,33.70
2018-12-15T22:30:55.932Z,33.30
2018-12-15T22:33:24.073Z,32.73
2018-12-15T22:35:51.915Z,36.20
2018-12-15T22:38:20.084Z,32.23
2018-12-15T22:40:47.870Z,31.80
2018-12-15T22:43:16.011Z,31.60
2018-12-15T22:45:44.175Z,34.67
2018-12-15T22:48:12.116Z,32.20
2018-12-15T22:50:40.143Z,33.40
2018-12-15T22:53:08.206Z,32.70
2018-12-15T22:55:36.238Z,33.10
2018-12-15T22:58:04.204Z,34.00
2018-12-15T23:00:34.644Z,33.03
2018-12-15T23:03:02.610Z,31.90
2018-12-15T23:05:30.575Z,34.03
2018-12-15T23:07:58.642Z,31.37
2018-12-15T23:10:26.510Z,35.30
2018-12-15T23:12:54.518Z,34.00
2018-12-15T23:15:22.587Z,31.60
2018-12-15T23:17:50.328Z,34.97
2018-12-15T23:20:18.194Z,35.77
2018-12-15T23:22:46.161Z,35.00
2018-12-15T23:25:14.258Z,35.03
2018-12-15T23:27:42.266Z,33.87
2018-12-15T23:30:10.400Z,35.83
2018-12-15T23:32:38.397Z,34.90
2018-12-15T23:35:06.542Z,31.87
2018-12-15T23:37:34.528Z,34.43
2018-12-15T23:40:02.469Z,33.33
2018-12-15T23:42:30.410Z,33.60
2018-12-15T23:44:58.400Z,34.70
2018-12-15T23:47:26.492Z,34.77
2018-12-15T23:49:54.531Z,34.53
2018-12-15T23:52:23.454Z,31.93
2018-12-15T23:54:51.863Z,34.63
2018-12-15T23:57:19.979Z,35.40
2018-12-15T23:59:47.919Z,34.63
